sensor_id;sensor_type;location;lat;lon;timestamp;pressure;altitude;pressure_sealevel;temperature;humidity
30935;BME280;51033;42.648;23.292;2023-11-19T00:02:13;93804.84;;;1.19;59.13
30935;BME280;51033;42.648;23.292;2023-11-19T00:04:38;93792.81;;;1.29;58.93
30935;BME280;51033;42.648;23.292;2023-11-19T00:07:07;93805.94;;;1.29;58.72
30935;BME280;51033;42.648;23.292;2023-11-19T00:09:36;93791.75;;;1.19;58.78
30935;BME280;51033;42.648;23.292;2023-11-19T00:12:06;93803.09;;;1.35;58.63
30935;BME280;51033;42.648;23.292;2023-11-19T00:14:32;93807.81;;;1.38;58.47
30935;BME280;51033;42.648;23.292;2023-11-19T00:16:58;93807.34;;;1.46;58.45
30935;BME280;51033;42.648;23.292;2023-11-19T00:19:23;93797.00;;;1.24;58.52
30935;BME280;51033;42.648;23.292;2023-11-19T00:21:48;93812.56;;;1.41;58.43
30935;BME280;51033;42.648;23.292;2023-11-19T00:24:14;93807.81;;;1.38;58.30
30935;BME280;51033;42.648;23.292;2023-11-19T00:26:42;93807.00;;;1.38;58.10
30935;BME280;51033;42.648;23.292;2023-11-19T00:29:07;93794.94;;;1.27;58.29
30935;BME280;51033;42.648;23.292;2023-11-19T00:31:33;93805.59;;;1.15;58.77
30935;BME280;51033;42.648;23.292;2023-11-19T00:33:58;93807.78;;;1.33;58.44
30935;BME280;51033;42.648;23.292;2023-11-19T00:36:24;93814.59;;;1.34;58.39
30935;BME280;51033;42.648;23.292;2023-11-19T00:38:50;93809.84;;;1.26;58.53
30935;BME280;51033;42.648;23.292;2023-11-19T00:41:18;93822.97;;;1.31;58.78
30935;BME280;51033;42.648;23.292;2023-11-19T00:43:43;93806.69;;;1.24;58.71
30935;BME280;51033;42.648;23.292;2023-11-19T00:46:09;93822.31;;;1.09;59.24
30935;BME280;51033;42.648;23.292;2023-11-19T00:48:36;93827.13;;;1.22;59.39
30935;BME280;51033;42.648;23.292;2023-11-19T00:51:02;93822.97;;;1.31;59.01
30935;BME280;51033;42.648;23.292;2023-11-19T00:53:29;93802.97;;;1.10;59.23
30935;BME280;51033;42.648;23.292;2023-11-19T00:55:55;93804.34;;;1.22;58.86
30935;BME280;51033;42.648;23.292;2023-11-19T00:58:20;93824.75;;;1.20;59.09
30935;BME280;51033;42.648;23.292;2023-11-19T01:00:46;93811.38;;;1.17;59.22
30935;BME280;51033;42.648;23.292;2023-11-19T01:03:11;93808.78;;;1.22;59.35
30935;BME280;51033;42.648;23.292;2023-11-19T01:05:37;93820.50;;;1.09;59.26
30935;BME280;51033;42.648;23.292;2023-11-19T01:08:05;93825.25;;;1.12;59.84
30935;BME280;51033;42.648;23.292;2023-11-19T01:10:31;93820.19;;;1.01;59.82
30935;BME280;51033;42.648;23.292;2023-11-19T01:12:57;93822.31;;;1.09;59.84
30935;BME280;51033;42.648;23.292;2023-11-19T01:15:22;93816.00;;;1.00;59.86
30935;BME280;51033;42.648;23.292;2023-11-19T01:17:48;93777.16;;;0.87;59.51
30935;BME280;51033;42.648;23.292;2023-11-19T01:20:14;93824.19;;;1.13;59.38
30935;BME280;51033;42.648;23.292;2023-11-19T01:22:39;93802.94;;;1.05;59.20
30935;BME280;51033;42.648;23.292;2023-11-19T01:25:06;93807.38;;;1.04;59.22
30935;BME280;51033;42.648;23.292;2023-11-19T01:27:31;93812.66;;;1.14;58.97
30935;BME280;51033;42.648;23.292;2023-11-19T01:29:57;93791.84;;;0.88;59.16
30935;BME280;51033;42.648;23.292;2023-11-19T01:32:22;93828.34;;;1.09;59.10
30935;BME280;51033;42.648;23.292;2023-11-19T01:34:51;93831.84;;;1.25;58.73
30935;BME280;51033;42.648;23.292;2023-11-19T01:37:16;93837.75;;;1.00;59.43
30935;BME280;51033;42.648;23.292;2023-11-19T01:39:44;93838.59;;;1.11;59.17
30935;BME280;51033;42.648;23.292;2023-11-19T01:42:10;93835.09;;;0.95;59.13
30935;BME280;51033;42.648;23.292;2023-11-19T01:44:38;93840.66;;;1.09;58.77
30935;BME280;51033;42.648;23.292;2023-11-19T01:47:03;93836.09;;;1.31;57.91
30935;BME280;51033;42.648;23.292;2023-11-19T01:49:30;93825.91;;;0.93;58.54
30935;BME280;51033;42.648;23.292;2023-11-19T01:51:57;93835.06;;;0.90;59.00
30935;BME280;51033;42.648;23.292;2023-11-19T01:54:24;93853.72;;;1.04;58.85
30935;BME280;51033;42.648;23.292;2023-11-19T01:56:50;93853.06;;;1.23;58.34
30935;BME280;51033;42.648;23.292;2023-11-19T01:59:17;93828.94;;;1.16;57.68
30935;BME280;51033;42.648;23.292;2023-11-19T02:01:42;93847.50;;;1.15;57.55
30935;BME280;51033;42.648;23.292;2023-11-19T02:04:08;93845.69;;;1.15;58.14
30935;BME280;51033;42.648;23.292;2023-11-19T02:06:37;93828.13;;;1.11;57.74
30935;BME280;51033;42.648;23.292;2023-11-19T02:09:06;93825.38;;;0.91;58.06
30935;BME280;51033;42.648;23.292;2023-11-19T02:11:33;93779.38;;;0.63;58.17
30935;BME280;51033;42.648;23.292;2023-11-19T02:14:00;93823.88;;;1.05;58.01
30935;BME280;51033;42.648;23.292;2023-11-19T02:16:26;93824.41;;;1.02;57.96
30935;BME280;51033;42.648;23.292;2023-11-19T02:18:51;93826.47;;;1.00;57.94
30935;BME280;51033;42.648;23.292;2023-11-19T02:21:17;93817.50;;;0.91;57.92
30935;BME280;51033;42.648;23.292;2023-11-19T02:23:43;93815.88;;;0.79;58.02
30935;BME280;51033;42.648;23.292;2023-11-19T02:26:25;93835.31;;;0.94;57.95
30935;BME280;51033;42.648;23.292;2023-11-19T02:28:52;93800.13;;;0.74;57.86
30935;BME280;51033;42.648;23.292;2023-11-19T02:31:17;93830.28;;;0.82;58.27
30935;BME280;51033;42.648;23.292;2023-11-19T02:33:44;93825.84;;;0.83;58.08
30935;BME280;51033;42.648;23.292;2023-11-19T02:36:10;93817.81;;;0.99;57.88
30935;BME280;51033;42.648;23.292;2023-11-19T02:38:36;93813.97;;;1.12;57.03
30935;BME280;51033;42.648;23.292;2023-11-19T02:41:03;93819.22;;;1.12;57.46
30935;BME280;51033;42.648;23.292;2023-11-19T02:43:34;93818.16;;;1.08;57.15
30935;BME280;51033;42.648;23.292;2023-11-19T02:46:01;93808.56;;;0.82;57.39
30935;BME280;51033;42.648;23.292;2023-11-19T02:48:27;93822.19;;;0.84;58.09
30935;BME280;51033;42.648;23.292;2023-11-19T02:50:53;93821.16;;;0.90;57.71
30935;BME280;51033;42.648;23.292;2023-11-19T02:53:18;93823.34;;;0.98;57.35
30935;BME280;51033;42.648;23.292;2023-11-19T02:55:47;93807.91;;;1.01;57.08
30935;BME280;51033;42.648;23.292;2023-11-19T02:58:15;93816.00;;;1.00;57.42
30935;BME280;51033;42.648;23.292;2023-11-19T03:00:49;93813.78;;;0.82;57.77
30935;BME280;51033;42.648;23.292;2023-11-19T03:03:22;93816.72;;;0.90;57.45
30935;BME280;51033;42.648;23.292;2023-11-19T03:05:51;93806.13;;;0.70;57.73
30935;BME280;51033;42.648;23.292;2023-11-19T03:08:16;93829.09;;;1.00;57.51
30935;BME280;51033;42.648;23.292;2023-11-19T03:10:42;93835.25;;;0.78;58.18
30935;BME280;51033;42.648;23.292;2023-11-19T03:13:12;93822.63;;;0.70;57.87
30935;BME280;51033;42.648;23.292;2023-11-19T03:15:42;93840.66;;;0.67;58.08
30935;BME280;51033;42.648;23.292;2023-11-19T03:18:07;93840.75;;;0.82;57.83
30935;BME280;51033;42.648;23.292;2023-11-19T03:20:33;93840.44;;;0.73;58.11
30935;BME280;51033;42.648;23.292;2023-11-19T03:22:58;93835.53;;;0.82;58.10
30935;BME280;51033;42.648;23.292;2023-11-19T03:25:25;93805.97;;;0.50;57.96
30935;BME280;51033;42.648;23.292;2023-11-19T03:27:52;93846.22;;;0.75;57.96
30935;BME280;51033;42.648;23.292;2023-11-19T03:30:18;93837.59;;;0.80;58.19
30935;BME280;51033;42.648;23.292;2023-11-19T03:32:46;93830.28;;;0.82;58.23
30935;BME280;51033;42.648;23.292;2023-11-19T03:35:11;93830.13;;;0.99;57.60
30935;BME280;51033;42.648;23.292;2023-11-19T03:37:37;93832.94;;;0.87;57.63
30935;BME280;51033;42.648;23.292;2023-11-19T03:40:05;93833.19;;;0.86;57.72
30935;BME280;51033;42.648;23.292;2023-11-19T03:42:31;93824.41;;;0.65;57.93
30935;BME280;51033;42.648;23.292;2023-11-19T03:44:56;93838.84;;;0.67;58.31
30935;BME280;51033;42.648;23.292;2023-11-19T03:47:22;93843.09;;;0.78;58.26
30935;BME280;51033;42.648;23.292;2023-11-19T03:49:49;93827.38;;;0.73;57.91
30935;BME280;51033;42.648;23.292;2023-11-19T03:52:14;93855.16;;;0.85;57.94
30935;BME280;51033;42.648;23.292;2023-11-19T03:54:40;93848.34;;;0.78;58.07
30935;BME280;51033;42.648;23.292;2023-11-19T03:57:05;93849.38;;;0.77;58.20
30935;BME280;51033;42.648;23.292;2023-11-19T03:59:30;93836.78;;;0.74;58.27
30935;BME280;51033;42.648;23.292;2023-11-19T04:01:56;93852.41;;;0.64;58.43
30935;BME280;51033;42.648;23.292;2023-11-19T04:04:22;93858.06;;;0.51;58.66
30935;BME280;51033;42.648;23.292;2023-11-19T04:06:47;93847.81;;;0.45;59.00
30935;BME280;51033;42.648;23.292;2023-11-19T04:09:13;93852.38;;;0.59;59.03
30935;BME280;51033;42.648;23.292;2023-11-19T04:11:39;93865.22;;;0.61;58.91
30935;BME280;51033;42.648;23.292;2023-11-19T04:14:05;93853.78;;;0.40;59.14
30935;BME280;51033;42.648;23.292;2023-11-19T04:16:30;93861.78;;;0.60;58.55
30935;BME280;51033;42.648;23.292;2023-11-19T04:18:56;93865.72;;;0.58;58.77
30935;BME280;51033;42.648;23.292;2023-11-19T04:21:21;93876.38;;;0.51;58.94
30935;BME280;51033;42.648;23.292;2023-11-19T04:23:48;93891.06;;;0.52;59.40
30935;BME280;51033;42.648;23.292;2023-11-19T04:26:14;93877.53;;;0.65;58.44
30935;BME280;51033;42.648;23.292;2023-11-19T04:28:40;93878.66;;;0.74;58.13
30935;BME280;51033;42.648;23.292;2023-11-19T04:31:06;93872.03;;;0.62;58.12
30935;BME280;51033;42.648;23.292;2023-11-19T04:33:31;93887.56;;;0.73;58.33
30935;BME280;51033;42.648;23.292;2023-11-19T04:35:57;93887.53;;;0.68;58.10
30935;BME280;51033;42.648;23.292;2023-11-19T04:38:22;93894.66;;;0.46;58.68
30935;BME280;51033;42.648;23.292;2023-11-19T04:40:47;93904.75;;;0.64;58.69
30935;BME280;51033;42.648;23.292;2023-11-19T04:43:13;93898.56;;;0.75;57.95
30935;BME280;51033;42.648;23.292;2023-11-19T04:45:38;93900.63;;;0.68;57.87
30935;BME280;51033;42.648;23.292;2023-11-19T04:48:05;93877.50;;;0.60;57.87
30935;BME280;51033;42.648;23.292;2023-11-19T04:50:30;93896.38;;;0.62;58.48
30935;BME280;51033;42.648;23.292;2023-11-19T04:52:56;93900.38;;;0.75;57.62
30935;BME280;51033;42.648;23.292;2023-11-19T04:55:21;93909.31;;;0.79;57.54
30935;BME280;51033;42.648;23.292;2023-11-19T04:57:47;93881.88;;;0.82;57.45
30935;BME280;51033;42.648;23.292;2023-11-19T05:00:13;93878.78;;;0.90;56.66
30935;BME280;51033;42.648;23.292;2023-11-19T05:02:39;93905.34;;;1.03;56.24
30935;BME280;51033;42.648;23.292;2023-11-19T05:05:04;93889.44;;;0.78;56.56
30935;BME280;51033;42.648;23.292;2023-11-19T05:07:30;93930.03;;;1.12;56.35
30935;BME280;51033;42.648;23.292;2023-11-19T05:09:56;93918.28;;;0.83;56.72
30935;BME280;51033;42.648;23.292;2023-11-19T05:12:21;93915.66;;;0.83;56.48
30935;BME280;51033;42.648;23.292;2023-11-19T05:14:48;93912.34;;;0.93;55.88
30935;BME280;51033;42.648;23.292;2023-11-19T05:17:17;93910.50;;;0.93;56.25
30935;BME280;51033;42.648;23.292;2023-11-19T05:19:43;93915.94;;;0.87;56.22
30935;BME280;51033;42.648;23.292;2023-11-19T05:22:08;93920.72;;;0.95;56.59
30935;BME280;51033;42.648;23.292;2023-11-19T05:24:34;93907.84;;;0.88;56.41
30935;BME280;51033;42.648;23.292;2023-11-19T05:27:00;93903.94;;;0.91;56.34
30935;BME280;51033;42.648;23.292;2023-11-19T05:29:25;93911.06;;;1.00;56.27
30935;BME280;51033;42.648;23.292;2023-11-19T05:31:51;93913.31;;;0.87;56.74
30935;BME280;51033;42.648;23.292;2023-11-19T05:34:16;93927.41;;;0.80;57.23
30935;BME280;51033;42.648;23.292;2023-11-19T05:36:41;93903.81;;;0.75;56.71
30935;BME280;51033;42.648;23.292;2023-11-19T05:39:07;93919.50;;;0.75;56.83
30935;BME280;51033;42.648;23.292;2023-11-19T05:41:32;93918.09;;;0.63;57.45
30935;BME280;51033;42.648;23.292;2023-11-19T05:43:58;93918.44;;;0.71;57.57
30935;BME280;51033;42.648;23.292;2023-11-19T05:46:23;93943.13;;;0.80;57.31
30935;BME280;51033;42.648;23.292;2023-11-19T05:48:50;93955.78;;;0.94;56.98
30935;BME280;51033;42.648;23.292;2023-11-19T05:51:16;93945.72;;;0.80;57.68
30935;BME280;51033;42.648;23.292;2023-11-19T05:53:42;93939.50;;;0.87;56.91
30935;BME280;51033;42.648;23.292;2023-11-19T05:56:08;93944.63;;;0.71;57.17
30935;BME280;51033;42.648;23.292;2023-11-19T05:58:35;93926.34;;;0.76;57.16
30935;BME280;51033;42.648;23.292;2023-11-19T06:01:01;93936.25;;;0.74;57.46
30935;BME280;51033;42.648;23.292;2023-11-19T06:03:28;93931.28;;;0.73;57.39
30935;BME280;51033;42.648;23.292;2023-11-19T06:05:53;93933.06;;;0.99;56.82
30935;BME280;51033;42.648;23.292;2023-11-19T06:08:19;93946.09;;;0.62;57.51
30935;BME280;51033;42.648;23.292;2023-11-19T06:10:46;93955.78;;;0.89;57.20
30935;BME280;51033;42.648;23.292;2023-11-19T06:13:14;93950.59;;;0.67;57.12
30935;BME280;51033;42.648;23.292;2023-11-19T06:15:44;93960.88;;;0.73;57.61
30935;BME280;51033;42.648;23.292;2023-11-19T06:18:10;93948.94;;;0.88;57.10
30935;BME280;51033;42.648;23.292;2023-11-19T06:20:37;93968.50;;;0.80;57.20
30935;BME280;51033;42.648;23.292;2023-11-19T06:23:03;93939.97;;;0.78;57.37
30935;BME280;51033;42.648;23.292;2023-11-19T06:25:28;93932.66;;;0.80;57.30
30935;BME280;51033;42.648;23.292;2023-11-19T06:27:53;93953.13;;;0.84;57.13
30935;BME280;51033;42.648;23.292;2023-11-19T06:30:19;93964.66;;;0.88;57.07
30935;BME280;51033;42.648;23.292;2023-11-19T06:32:46;93953.91;;;0.89;57.22
30935;BME280;51033;42.648;23.292;2023-11-19T06:35:12;93943.25;;;0.96;56.65
30935;BME280;51033;42.648;23.292;2023-11-19T06:37:39;93934.13;;;0.98;56.63
30935;BME280;51033;42.648;23.292;2023-11-19T06:40:05;93954.31;;;1.03;56.84
30935;BME280;51033;42.648;23.292;2023-11-19T06:42:31;93949.56;;;1.00;56.39
30935;BME280;51033;42.648;23.292;2023-11-19T06:44:57;93938.16;;;0.84;56.66
30935;BME280;51033;42.648;23.292;2023-11-19T06:47:25;93943.13;;;0.80;57.21
30935;BME280;51033;42.648;23.292;2023-11-19T06:49:52;93957.19;;;0.74;57.20
30935;BME280;51033;42.648;23.292;2023-11-19T06:52:17;93954.16;;;0.83;56.90
30935;BME280;51033;42.648;23.292;2023-11-19T06:54:45;93929.47;;;0.73;57.01
30935;BME280;51033;42.648;23.292;2023-11-19T06:57:13;93920.97;;;0.61;56.89
30935;BME280;51033;42.648;23.292;2023-11-19T06:59:39;93950.97;;;0.80;57.02
30935;BME280;51033;42.648;23.292;2023-11-19T07:02:05;93961.06;;;0.99;56.70
30935;BME280;51033;42.648;23.292;2023-11-19T07:04:31;93965.38;;;0.78;56.53
30935;BME280;51033;42.648;23.292;2023-11-19T07:06:58;93963.44;;;0.68;56.92
30935;BME280;51033;42.648;23.292;2023-11-19T07:09:25;93974.72;;;0.69;57.10
30935;BME280;51033;42.648;23.292;2023-11-19T07:11:51;93970.13;;;0.54;57.31
30935;BME280;51033;42.648;23.292;2023-11-19T07:14:17;93976.13;;;0.55;57.02
30935;BME280;51033;42.648;23.292;2023-11-19T07:16:43;93968.03;;;0.56;57.25
30935;BME280;51033;42.648;23.292;2023-11-19T07:19:09;93966.38;;;0.50;57.06
30935;BME280;51033;42.648;23.292;2023-11-19T07:21:35;93971.88;;;0.49;57.30
30935;BME280;51033;42.648;23.292;2023-11-19T07:24:05;93981.00;;;0.46;57.76
30935;BME280;51033;42.648;23.292;2023-11-19T07:26:31;93926.91;;;0.25;57.08
30935;BME280;51033;42.648;23.292;2023-11-19T07:28:56;93938.00;;;0.37;57.04
30935;BME280;51033;42.648;23.292;2023-11-19T07:31:23;93977.47;;;0.57;57.12
30935;BME280;51033;42.648;23.292;2023-11-19T07:33:49;93987.97;;;0.62;57.16
30935;BME280;51033;42.648;23.292;2023-11-19T07:36:14;93970.00;;;0.44;57.03
30935;BME280;51033;42.648;23.292;2023-11-19T07:38:40;94005.59;;;0.45;57.32
30935;BME280;51033;42.648;23.292;2023-11-19T07:41:06;94011.59;;;0.67;56.77
30935;BME280;51033;42.648;23.292;2023-11-19T07:43:32;94007.13;;;0.41;56.57
30935;BME280;51033;42.648;23.292;2023-11-19T07:45:58;94015.28;;;0.45;57.13
30935;BME280;51033;42.648;23.292;2023-11-19T07:48:25;94013.47;;;0.72;56.68
30935;BME280;51033;42.648;23.292;2023-11-19T07:50:52;93992.13;;;0.58;56.53
30935;BME280;51033;42.648;23.292;2023-11-19T07:53:19;93995.59;;;0.64;55.72
30935;BME280;51033;42.648;23.292;2023-11-19T07:55:45;94023.25;;;0.82;55.53
30935;BME280;51033;42.648;23.292;2023-11-19T07:58:11;94016.22;;;0.60;55.67
30935;BME280;51033;42.648;23.292;2023-11-19T08:00:37;93997.56;;;0.52;55.88
30935;BME280;51033;42.648;23.292;2023-11-19T08:03:03;94004.44;;;0.58;56.03
30935;BME280;51033;42.648;23.292;2023-11-19T08:05:31;94025.66;;;0.61;56.26
30935;BME280;51033;42.648;23.292;2023-11-19T08:07:56;94023.50;;;0.53;56.03
30935;BME280;51033;42.648;23.292;2023-11-19T08:10:22;94009.44;;;0.59;55.98
30935;BME280;51033;42.648;23.292;2023-11-19T08:12:48;94004.50;;;0.41;55.55
30935;BME280;51033;42.648;23.292;2023-11-19T08:15:14;94026.56;;;0.50;55.71
30935;BME280;51033;42.648;23.292;2023-11-19T08:17:39;94018.19;;;0.48;55.60
30935;BME280;51033;42.648;23.292;2023-11-19T08:20:05;94053.88;;;0.54;56.05
30935;BME280;51033;42.648;23.292;2023-11-19T08:22:35;94020.69;;;0.38;56.47
30935;BME280;51033;42.648;23.292;2023-11-19T08:25:00;94025.69;;;0.40;56.54
30935;BME280;51033;42.648;23.292;2023-11-19T08:27:26;94046.97;;;0.48;57.13
30935;BME280;51033;42.648;23.292;2023-11-19T08:29:54;94039.72;;;0.55;56.93
30935;BME280;51033;42.648;23.292;2023-11-19T08:32:24;94046.66;;;0.66;56.99
30935;BME280;51033;42.648;23.292;2023-11-19T08:34:49;94019.56;;;0.56;56.40
30935;BME280;51033;42.648;23.292;2023-11-19T08:37:15;94043.28;;;0.71;56.37
30935;BME280;51033;42.648;23.292;2023-11-19T08:39:40;94046.47;;;0.73;56.19
30935;BME280;51033;42.648;23.292;2023-11-19T08:42:07;94030.53;;;0.53;56.44
30935;BME280;51033;42.648;23.292;2023-11-19T08:44:32;94051.50;;;0.79;56.31
30935;BME280;51033;42.648;23.292;2023-11-19T08:46:58;94045.28;;;0.86;56.90
30935;BME280;51033;42.648;23.292;2023-11-19T08:49:24;94038.19;;;1.08;55.96
30935;BME280;51033;42.648;23.292;2023-11-19T08:51:49;94038.47;;;1.11;55.79
30935;BME280;51033;42.648;23.292;2023-11-19T08:54:14;94031.84;;;1.04;55.38
30935;BME280;51033;42.648;23.292;2023-11-19T08:56:40;94051.22;;;1.03;55.93
30935;BME280;51033;42.648;23.292;2023-11-19T08:59:06;94034.44;;;1.04;55.82
30935;BME280;51033;42.648;23.292;2023-11-19T09:01:32;94054.56;;;1.25;54.92
30935;BME280;51033;42.648;23.292;2023-11-19T09:03:57;94035.84;;;1.11;54.41
30935;BME280;51033;42.648;23.292;2023-11-19T09:06:23;94030.94;;;1.20;54.85
30935;BME280;51033;42.648;23.292;2023-11-19T09:08:48;94029.53;;;1.39;54.63
30935;BME280;51033;42.648;23.292;2023-11-19T09:11:14;94025.97;;;1.23;54.73
30935;BME280;51033;42.648;23.292;2023-11-19T09:13:39;94007.91;;;1.22;54.91
30935;BME280;51033;42.648;23.292;2023-11-19T09:16:05;94015.09;;;1.37;55.25
30935;BME280;51033;42.648;23.292;2023-11-19T09:18:31;93994.25;;;1.20;54.93
30935;BME280;51033;42.648;23.292;2023-11-19T09:21:00;94023.19;;;1.35;55.18
30935;BME280;51033;42.648;23.292;2023-11-19T09:23:26;94003.16;;;1.19;54.14
30935;BME280;51033;42.648;23.292;2023-11-19T09:25:53;94019.78;;;1.03;54.77
30935;BME280;51033;42.648;23.292;2023-11-19T09:28:19;94038.78;;;1.20;55.12
30935;BME280;51033;42.648;23.292;2023-11-19T09:30:44;94033.69;;;1.08;54.91
30935;BME280;51033;42.648;23.292;2023-11-19T09:33:10;94039.44;;;1.32;54.16
30935;BME280;51033;42.648;23.292;2023-11-19T09:35:35;94026.72;;;1.19;54.77
30935;BME280;51033;42.648;23.292;2023-11-19T09:38:01;93986.16;;;1.21;54.94
30935;BME280;51033;42.648;23.292;2023-11-19T09:40:27;93985.84;;;1.13;54.43
30935;BME280;51033;42.648;23.292;2023-11-19T09:42:53;93969.38;;;1.17;55.04
30935;BME280;51033;42.648;23.292;2023-11-19T09:45:21;93979.69;;;1.34;54.94
30935;BME280;51033;42.648;23.292;2023-11-19T09:47:47;93961.38;;;1.39;54.67
30935;BME280;51033;42.648;23.292;2023-11-19T09:50:17;93950.69;;;1.46;55.34
30935;BME280;51033;42.648;23.292;2023-11-19T09:52:47;93947.91;;;1.67;54.67
30935;BME280;51033;42.648;23.292;2023-11-19T09:55:12;93934.81;;;1.67;54.46
30935;BME280;51033;42.648;23.292;2023-11-19T09:57:39;93925.38;;;1.66;54.66
30935;BME280;51033;42.648;23.292;2023-11-19T10:00:06;93913.00;;;1.62;55.15
30935;BME280;51033;42.648;23.292;2023-11-19T10:02:33;93938.91;;;1.48;54.61
30935;BME280;51033;42.648;23.292;2023-11-19T10:05:04;93949.75;;;1.67;54.57
30935;BME280;51033;42.648;23.292;2023-11-19T10:07:31;93946.84;;;1.63;54.16
30935;BME280;51033;42.648;23.292;2023-11-19T10:10:02;93951.16;;;1.85;53.75
30935;BME280;51033;42.648;23.292;2023-11-19T10:12:29;93931.28;;;1.89;53.26
30935;BME280;51033;42.648;23.292;2023-11-19T10:14:57;93944.31;;;1.79;53.84
30935;BME280;51033;42.648;23.292;2023-11-19T10:17:32;93947.50;;;1.86;53.52
30935;BME280;51033;42.648;23.292;2023-11-19T10:19:58;93934.28;;;1.65;53.21
30935;BME280;51033;42.648;23.292;2023-11-19T10:22:23;93952.84;;;1.96;52.86
30935;BME280;51033;42.648;23.292;2023-11-19T10:24:50;93912.56;;;1.75;52.37
30935;BME280;51033;42.648;23.292;2023-11-19T10:27:16;93949.41;;;1.90;52.96
30935;BME280;51033;42.648;23.292;2023-11-19T10:29:45;93947.84;;;1.94;52.46
30935;BME280;51033;42.648;23.292;2023-11-19T10:32:12;93948.63;;;1.95;52.33
30935;BME280;51033;42.648;23.292;2023-11-19T10:34:38;93900.22;;;1.65;51.89
30935;BME280;51033;42.648;23.292;2023-11-19T10:37:05;93921.75;;;1.78;52.35
30935;BME280;51033;42.648;23.292;2023-11-19T10:39:51;93933.84;;;1.84;51.64
30935;BME280;51033;42.648;23.292;2023-11-19T10:42:18;93919.22;;;1.93;51.25
30935;BME280;51033;42.648;23.292;2023-11-19T10:44:44;93935.91;;;1.82;51.98
30935;BME280;51033;42.648;23.292;2023-11-19T10:47:10;93924.75;;;1.96;52.10
30935;BME280;51033;42.648;23.292;2023-11-19T10:49:37;93942.94;;;2.18;51.77
30935;BME280;51033;42.648;23.292;2023-11-19T10:52:05;93949.78;;;2.19;51.45
30935;BME280;51033;42.648;23.292;2023-11-19T10:54:34;93949.81;;;2.29;51.20
30935;BME280;51033;42.648;23.292;2023-11-19T10:57:02;93931.16;;;2.31;51.03
30935;BME280;51033;42.648;23.292;2023-11-19T10:59:31;93905.94;;;2.15;50.57
30935;BME280;51033;42.648;23.292;2023-11-19T11:02:03;93919.06;;;2.20;51.29
30935;BME280;51033;42.648;23.292;2023-11-19T11:04:33;93923.03;;;2.32;51.09
30935;BME280;51033;42.648;23.292;2023-11-19T11:07:04;93925.66;;;2.32;50.77
30935;BME280;51033;42.648;23.292;2023-11-19T11:09:31;93883.16;;;2.30;50.73
30935;BME280;51033;42.648;23.292;2023-11-19T11:11:58;93880.78;;;2.29;51.40
30935;BME280;51033;42.648;23.292;2023-11-19T11:14:25;93875.25;;;2.40;50.63
30935;BME280;51033;42.648;23.292;2023-11-19T11:16:53;93871.59;;;2.46;50.43
30935;BME280;51033;42.648;23.292;2023-11-19T11:19:18;93877.41;;;2.53;49.69
30935;BME280;51033;42.648;23.292;2023-11-19T11:21:48;93866.91;;;2.48;49.85
30935;BME280;51033;42.648;23.292;2023-11-19T11:30:06;93890.00;;;2.51;49.22
30935;BME280;51033;42.648;23.292;2023-11-19T11:32:54;93896.81;;;2.47;49.84
30935;BME280;51033;42.648;23.292;2023-11-19T11:36:07;93893.16;;;2.53;49.77
30935;BME280;51033;42.648;23.292;2023-11-19T11:38:36;93892.09;;;2.70;49.89
30935;BME280;51033;42.648;23.292;2023-11-19T11:41:24;93883.72;;;2.68;49.80
30935;BME280;51033;42.648;23.292;2023-11-19T11:43:54;93878.97;;;2.80;48.82
30935;BME280;51033;42.648;23.292;2023-11-19T11:49:06;93864.28;;;2.74;49.41
30935;BME280;51033;42.648;23.292;2023-11-19T11:54:11;93866.63;;;2.80;49.00
30935;BME280;51033;42.648;23.292;2023-11-19T11:57:10;93860.09;;;2.83;48.97
30935;BME280;51033;42.648;23.292;2023-11-19T12:02:07;93865.81;;;3.20;48.34
30935;BME280;51033;42.648;23.292;2023-11-19T12:04:34;93873.13;;;3.38;47.44
30935;BME280;51033;42.648;23.292;2023-11-19T12:07:15;93869.47;;;3.39;48.29
30935;BME280;51033;42.648;23.292;2023-11-19T12:09:42;93862.09;;;3.52;47.53
30935;BME280;51033;42.648;23.292;2023-11-19T12:20:05;93867.34;;;3.52;47.67
30935;BME280;51033;42.648;23.292;2023-11-19T12:22:38;93846.28;;;3.62;47.43
30935;BME280;51033;42.648;23.292;2023-11-19T12:25:08;93843.63;;;3.67;47.31
30935;BME280;51033;42.648;23.292;2023-11-19T12:27:35;93830.72;;;3.70;46.39
30935;BME280;51033;42.648;23.292;2023-11-19T12:30:04;93841.47;;;3.79;46.86
30935;BME280;51033;42.648;23.292;2023-11-19T12:32:44;93822.00;;;3.80;46.82
30935;BME280;51033;42.648;23.292;2023-11-19T12:35:10;93803.34;;;3.76;46.31
30935;BME280;51033;42.648;23.292;2023-11-19T12:37:48;93833.25;;;3.91;45.49
30935;BME280;51033;42.648;23.292;2023-11-19T12:40:21;93824.47;;;4.10;45.40
30935;BME280;51033;42.648;23.292;2023-11-19T12:42:56;93821.09;;;4.05;45.82
30935;BME280;51033;42.648;23.292;2023-11-19T12:45:22;93823.22;;;3.98;45.46
30935;BME280;51033;42.648;23.292;2023-11-19T12:47:49;93821.91;;;4.00;46.05
30935;BME280;51033;42.648;23.292;2023-11-19T12:50:17;93840.25;;;4.15;45.17
30935;BME280;51033;42.648;23.292;2023-11-19T12:52:55;93804.50;;;4.04;45.06
30935;BME280;51033;42.648;23.292;2023-11-19T12:57:51;93816.38;;;3.97;45.06
30935;BME280;51033;42.648;23.292;2023-11-19T13:00:21;93822.06;;;4.14;44.82
30935;BME280;51033;42.648;23.292;2023-11-19T13:02:48;93798.66;;;4.12;44.53
30935;BME280;51033;42.648;23.292;2023-11-19T13:08:04;93801.72;;;4.35;43.52
30935;BME280;51033;42.648;23.292;2023-11-19T13:10:31;93806.97;;;4.35;43.86
30935;BME280;51033;42.648;23.292;2023-11-19T13:13:04;93799.03;;;4.40;43.05
30935;BME280;51033;42.648;23.292;2023-11-19T13:15:30;93783.38;;;4.14;42.93
30935;BME280;51033;42.648;23.292;2023-11-19T13:17:56;93790.97;;;4.21;43.57
30935;BME280;51033;42.648;23.292;2023-11-19T13:20:22;93815.38;;;4.37;43.34
30935;BME280;51033;42.648;23.292;2023-11-19T13:22:59;93796.84;;;4.52;43.33
30935;BME280;51033;42.648;23.292;2023-11-19T13:25:25;93784.34;;;4.34;43.42
30935;BME280;51033;42.648;23.292;2023-11-19T13:27:51;93786.69;;;4.35;43.54